createdAt,value
2023-04-15T00:01:55.002Z,62.90
2023-04-15T00:04:24.513Z,62.90
2023-04-15T00:06:53.704Z,62.90
2023-04-15T00:09:21.883Z,62.90
2023-04-15T00:11:50.307Z,62.90
2023-04-15T00:14:18.179Z,63.00
2023-04-15T00:16:46.235Z,63.00
2023-04-15T00:19:14.105Z,63.00
2023-04-15T00:21:43.312Z,63.00
2023-04-15T00:24:11.652Z,63.00
2023-04-15T00:26:39.597Z,63.00
2023-04-15T00:29:08.230Z,63.10
2023-04-15T00:31:37.605Z,63.10
2023-04-15T00:34:05.725Z,63.10
2023-04-15T00:36:35.099Z,63.10
2023-04-15T00:39:05.273Z,63.10
2023-04-15T00:41:34.047Z,63.00
2023-04-15T00:44:03.358Z,63.10
2023-04-15T00:46:31.476Z,63.10
2023-04-15T00:48:59.586Z,63.20
2023-04-15T00:51:27.645Z,63.10
2023-04-15T00:53:56.000Z,63.10
2023-04-15T00:56:25.338Z,63.10
2023-04-15T00:58:53.267Z,63.10
2023-04-15T01:01:21.705Z,63.10
2023-04-15T01:03:51.236Z,63.10
2023-04-15T01:06:19.446Z,63.10
2023-04-15T01:08:47.361Z,63.10
2023-04-15T01:11:15.462Z,63.10
2023-04-15T01:13:44.834Z,63.10
2023-04-15T01:16:13.061Z,63.10
2023-04-15T01:18:41.126Z,63.10
2023-04-15T01:21:08.980Z,63.10
2023-04-15T01:23:38.524Z,63.00
2023-04-15T01:26:08.969Z,63.10
2023-04-15T01:28:37.332Z,63.00
2023-04-15T01:31:10.028Z,63.10
2023-04-15T01:33:39.005Z,63.10
2023-04-15T01:36:09.965Z,63.10
2023-04-15T01:38:37.945Z,63.10
2023-04-15T01:41:07.571Z,63.00
2023-04-15T01:43:37.369Z,63.10
2023-04-15T01:46:05.446Z,63.00
2023-04-15T01:48:33.441Z,63.00
2023-04-15T01:51:01.400Z,63.00
2023-04-15T01:53:29.421Z,63.10
2023-04-15T01:55:57.321Z,63.00
2023-04-15T01:58:25.216Z,63.00
2023-04-15T02:00:54.536Z,63.00
2023-04-15T02:03:23.235Z,63.00
2023-04-15T02:05:53.259Z,63.00
2023-04-15T02:08:21.922Z,63.00
2023-04-15T02:10:49.774Z,63.00
2023-04-15T02:13:17.907Z,63.00
2023-04-15T02:15:48.729Z,63.00
2023-04-15T02:18:18.174Z,63.10
2023-04-15T02:20:47.041Z,63.20
2023-04-15T02:23:15.716Z,63.10
2023-04-15T02:25:53.579Z,63.20
2023-04-15T02:28:22.200Z,63.20
2023-04-15T02:30:50.934Z,63.40
2023-04-15T02:33:20.291Z,63.40
2023-04-15T02:35:48.184Z,63.50
2023-04-15T02:38:17.857Z,63.50
2023-04-15T02:40:46.163Z,63.50
2023-04-15T02:43:14.188Z,63.60
2023-04-15T02:45:43.498Z,63.60
2023-04-15T02:48:11.673Z,63.60
2023-04-15T02:50:41.078Z,63.60
2023-04-15T02:53:11.245Z,63.70
2023-04-15T02:55:39.158Z,63.80
2023-04-15T02:58:07.031Z,63.90
2023-04-15T03:00:35.020Z,64.00
2023-04-15T03:03:04.223Z,63.90
2023-04-15T03:05:32.546Z,64.00
2023-04-15T03:08:03.159Z,64.00
2023-04-15T03:10:31.612Z,64.00
2023-04-15T03:12:59.502Z,63.90
2023-04-15T03:15:27.895Z,63.90
2023-04-15T03:17:56.464Z,63.90
2023-04-15T03:20:24.822Z,63.80
2023-04-15T03:22:52.873Z,63.90
2023-04-15T03:25:24.253Z,63.80
2023-04-15T03:27:52.108Z,63.90
2023-04-15T03:30:20.005Z,63.80
2023-04-15T03:32:47.954Z,63.90
2023-04-15T03:35:16.404Z,63.90
2023-04-15T03:37:44.362Z,63.90
2023-04-15T03:40:13.052Z,64.00
2023-04-15T03:42:42.318Z,63.90
2023-04-15T03:45:10.953Z,63.90
2023-04-15T03:47:38.896Z,63.90
2023-04-15T03:50:08.339Z,63.90
2023-04-15T03:52:36.406Z,63.90
2023-04-15T03:55:04.424Z,63.90
2023-04-15T03:57:32.420Z,63.90
2023-04-15T04:00:01.764Z,63.90
2023-04-15T04:02:39.937Z,63.90
2023-04-15T04:05:08.403Z,63.90
2023-04-15T04:07:36.545Z,63.90
2023-04-15T04:10:04.760Z,63.90
2023-04-15T04:12:32.645Z,63.90
2023-04-15T04:15:01.910Z,63.90
2023-04-15T04:17:29.901Z,63.90
2023-04-15T04:19:57.812Z,63.90
2023-04-15T04:22:25.766Z,63.90
2023-04-15T04:24:53.676Z,65.00
2023-04-15T04:27:21.681Z,63.90
2023-04-15T04:29:49.931Z,63.90
2023-04-15T04:32:19.228Z,63.90
2023-04-15T04:34:47.207Z,63.90
2023-04-15T04:37:15.217Z,63.90
2023-04-15T04:39:43.067Z,63.90
2023-04-15T04:42:11.091Z,63.90
2023-04-15T04:44:39.075Z,63.90
2023-04-15T04:47:07.551Z,63.90
2023-04-15T04:49:36.807Z,63.90
2023-04-15T04:52:04.766Z,63.90
2023-04-15T04:54:32.830Z,63.80
2023-04-15T04:57:00.767Z,63.80
2023-04-15T04:59:28.652Z,63.80
2023-04-15T05:01:56.630Z,63.70
2023-04-15T05:04:24.596Z,63.70
2023-04-15T05:06:53.820Z,63.70
2023-04-15T05:09:21.717Z,63.60
2023-04-15T05:11:49.575Z,63.70
2023-04-15T05:14:17.514Z,63.60
2023-04-15T05:16:45.390Z,63.60
2023-04-15T05:19:13.266Z,63.60
2023-04-15T05:21:41.148Z,63.50
2023-04-15T05:24:10.386Z,63.50
2023-04-15T05:26:38.323Z,63.50
2023-04-15T05:29:06.325Z,63.60
2023-04-15T05:31:34.297Z,63.60
2023-04-15T05:34:02.489Z,63.60
2023-04-15T05:36:31.445Z,63.60
2023-04-15T05:38:59.702Z,63.60
2023-04-15T05:41:29.125Z,63.70
2023-04-15T05:43:57.206Z,63.60
2023-04-15T05:46:25.239Z,63.60
2023-04-15T05:48:54.675Z,63.70
2023-04-15T05:51:23.252Z,63.80
2023-04-15T05:53:51.252Z,63.60
2023-04-15T05:56:20.326Z,63.60
2023-04-15T05:58:50.554Z,63.70
2023-04-15T06:01:19.311Z,63.60
2023-04-15T06:03:47.350Z,63.70
2023-04-15T06:06:15.446Z,63.70
2023-04-15T06:08:43.333Z,63.70
2023-04-15T06:11:11.278Z,63.70
2023-04-15T06:13:39.226Z,63.70
2023-04-15T06:16:09.215Z,63.80
2023-04-15T06:18:37.134Z,63.80
2023-04-15T06:21:05.717Z,63.80
2023-04-15T06:23:35.768Z,63.80
2023-04-15T06:26:03.740Z,63.80
2023-04-15T06:28:31.623Z,63.80
2023-04-15T06:30:59.534Z,63.80
2023-04-15T06:33:28.961Z,63.70
2023-04-15T06:35:56.980Z,63.80
2023-04-15T06:38:24.936Z,63.60
2023-04-15T06:40:52.853Z,63.50
2023-04-15T06:43:20.861Z,63.50
2023-04-15T06:45:49.483Z,63.40
2023-04-15T06:48:17.782Z,63.30
2023-04-15T06:50:47.471Z,63.30
2023-04-15T06:53:15.935Z,63.40
2023-04-15T06:55:44.246Z,63.40
2023-04-15T06:58:12.420Z,63.40
2023-04-15T07:00:45.170Z,63.30
2023-04-15T07:03:13.967Z,63.20
2023-04-15T07:05:42.374Z,63.20
2023-04-15T07:08:12.369Z,63.00
2023-04-15T07:10:40.973Z,63.00
2023-04-15T07:13:09.033Z,62.90
2023-04-15T07:15:37.205Z,62.90
2023-04-15T07:18:05.251Z,62.80
2023-04-15T07:20:33.576Z,62.70
2023-04-15T07:23:01.800Z,62.60
2023-04-15T07:25:31.385Z,62.60
2023-04-15T07:27:59.689Z,62.60
2023-04-15T07:30:27.872Z,62.50
2023-04-15T07:32:56.187Z,62.50
2023-04-15T07:35:25.623Z,62.40
2023-04-15T07:37:53.567Z,62.40
2023-04-15T07:40:22.389Z,62.40
2023-04-15T07:42:52.531Z,62.40
2023-04-15T07:45:21.115Z,62.30
2023-04-15T07:47:49.106Z,62.30
2023-04-15T07:50:17.466Z,62.20
2023-04-15T07:52:45.733Z,62.20
2023-04-15T07:55:14.620Z,62.30
2023-04-15T07:57:42.530Z,62.40
2023-04-15T08:00:13.024Z,62.30
2023-04-15T08:02:41.645Z,62.40
2023-04-15T08:05:10.741Z,62.40
2023-04-15T08:07:38.876Z,62.30
2023-04-15T08:10:08.684Z,62.30
2023-04-15T08:12:40.068Z,62.40
2023-04-15T08:15:09.576Z,62.30
2023-04-15T08:17:39.376Z,62.30
2023-04-15T08:20:08.607Z,62.30
2023-04-15T08:22:38.082Z,62.30
2023-04-15T08:25:06.927Z,62.30
2023-04-15T08:27:35.475Z,62.30
2023-04-15T08:30:05.331Z,62.30
2023-04-15T08:32:34.324Z,62.30
2023-04-15T08:35:07.955Z,62.50
2023-04-15T08:37:39.798Z,62.60
2023-04-15T08:40:09.936Z,62.40
2023-04-15T08:42:39.434Z,62.40
2023-04-15T08:45:11.423Z,62.30
2023-04-15T08:47:40.458Z,62.40
2023-04-15T08:50:14.527Z,62.30
2023-04-15T08:52:43.147Z,62.20
2023-04-15T08:55:11.838Z,62.20
2023-04-15T08:57:42.227Z,62.40
2023-04-15T09:00:12.473Z,62.40
2023-04-15T09:02:41.474Z,62.10
2023-04-15T09:05:12.422Z,62.10
2023-04-15T09:07:40.812Z,62.10
2023-04-15T09:10:10.978Z,62.20
2023-04-15T09:12:40.406Z,62.30
2023-04-15T09:15:10.312Z,62.20
2023-04-15T09:17:43.750Z,62.20
2023-04-15T09:20:21.148Z,62.10
2023-04-15T09:22:50.031Z,62.10
2023-04-15T09:25:34.318Z,62.10
2023-04-15T09:28:03.493Z,62.10
2023-04-15T09:30:37.256Z,62.10
2023-04-15T09:33:16.762Z,62.20
2023-04-15T09:36:01.109Z,62.10
2023-04-15T09:38:34.512Z,62.20
2023-04-15T09:41:03.185Z,62.10
2023-04-15T09:43:44.085Z,62.10
2023-04-15T09:46:13.274Z,62.10
2023-04-15T09:48:43.092Z,61.90
2023-04-15T09:51:14.426Z,62.00
2023-04-15T09:53:46.048Z,62.00
2023-04-15T09:56:15.482Z,62.00
2023-04-15T09:58:44.601Z,61.90
2023-04-15T10:01:13.106Z,61.90
2023-04-15T10:03:48.438Z,61.80
2023-04-15T10:06:19.189Z,61.80
2023-04-15T10:08:48.082Z,61.90
2023-04-15T10:11:20.859Z,61.80
2023-04-15T10:13:54.582Z,61.80
2023-04-15T10:16:23.702Z,61.90
2023-04-15T10:18:56.203Z,62.00
2023-04-15T10:21:28.730Z,61.80
2023-04-15T10:23:57.379Z,61.80
2023-04-15T10:26:28.245Z,62.00
2023-04-15T10:29:00.181Z,62.10
2023-04-15T10:31:29.976Z,62.20
2023-04-15T10:33:59.634Z,62.20
2023-04-15T10:36:36.516Z,62.30
2023-04-15T10:39:40.708Z,62.40
2023-04-15T10:42:09.279Z,62.40
2023-04-15T10:44:38.613Z,62.30
2023-04-15T10:47:12.173Z,62.30
2023-04-15T10:49:47.608Z,62.30
2023-04-15T10:52:17.758Z,62.30
2023-04-15T10:54:45.767Z,62.20
2023-04-15T10:57:17.912Z,62.20
2023-04-15T11:00:04.356Z,62.40
2023-04-15T11:02:43.571Z,62.40
2023-04-15T11:05:11.940Z,62.30
2023-04-15T11:07:43.476Z,62.30
2023-04-15T11:10:54.879Z,62.20
2023-04-15T11:13:28.275Z,62.10
2023-04-15T11:15:58.314Z,62.30
2023-04-15T11:18:28.146Z,62.20
2023-04-15T11:20:57.320Z,62.70
2023-04-15T11:23:34.335Z,62.90
2023-04-15T11:26:02.690Z,62.70
2023-04-15T11:28:31.467Z,62.50
2023-04-15T11:30:59.781Z,62.50
2023-04-15T11:33:27.686Z,62.40
2023-04-15T11:35:55.971Z,62.50
2023-04-15T11:38:23.867Z,62.90
2023-04-15T11:40:53.299Z,62.90
2023-04-15T11:43:22.391Z,62.90
2023-04-15T11:45:54.276Z,62.90
2023-04-15T11:48:23.735Z,63.50
2023-04-15T11:50:55.697Z,63.50
2023-04-15T11:53:23.798Z,63.40
2023-04-15T11:55:54.294Z,63.30
2023-04-15T11:58:23.423Z,63.20
2023-04-15T12:00:52.493Z,63.20
2023-04-15T12:03:24.193Z,63.40
2023-04-15T12:09:02.025Z,63.50
2023-04-15T12:11:49.207Z,63.30
2023-04-15T12:14:23.274Z,63.30
2023-04-15T12:16:52.637Z,63.40
2023-04-15T12:19:24.248Z,63.30
2023-04-15T12:21:52.290Z,63.50
2023-04-15T12:24:22.260Z,63.40
2023-04-15T12:26:52.236Z,63.40
2023-04-15T12:29:20.341Z,63.40
2023-04-15T12:31:52.407Z,63.40
2023-04-15T12:34:21.012Z,63.40
2023-04-15T12:36:48.967Z,63.40
2023-04-15T12:39:16.852Z,63.40
2023-04-15T12:41:44.755Z,63.50
2023-04-15T12:44:14.082Z,63.40
2023-04-15T12:46:42.213Z,63.30
2023-04-15T12:49:10.448Z,63.40
2023-04-15T12:51:38.406Z,63.30
2023-04-15T12:54:07.957Z,63.10
2023-04-15T12:56:35.886Z,63.00
2023-04-15T12:59:04.119Z,63.10
2023-04-15T13:01:33.407Z,63.20
2023-04-15T13:04:01.343Z,63.40
2023-04-15T13:06:29.628Z,63.50
2023-04-15T13:08:58.765Z,63.20
2023-04-15T13:11:27.226Z,63.10
2023-04-15T13:13:55.994Z,63.10
2023-04-15T13:16:24.715Z,63.20
2023-04-15T13:18:54.099Z,63.40
2023-04-15T13:21:22.205Z,63.50
2023-04-15T13:23:50.491Z,63.60
2023-04-15T13:26:19.052Z,63.70
2023-04-15T13:28:47.224Z,63.60
2023-04-15T13:31:15.924Z,63.50
2023-04-15T13:33:44.122Z,63.50
2023-04-15T13:36:13.769Z,63.50
2023-04-15T13:38:41.770Z,63.60
2023-04-15T13:41:09.932Z,63.60
2023-04-15T13:43:37.940Z,63.60
2023-04-15T13:46:06.217Z,63.60
2023-04-15T13:48:34.256Z,63.20
2023-04-15T13:51:02.210Z,62.90
2023-04-15T13:53:38.853Z,62.70
2023-04-15T13:56:07.943Z,62.70
2023-04-15T13:58:35.849Z,62.70
2023-04-15T14:01:05.672Z,62.60
2023-04-15T14:03:34.542Z,62.70
2023-04-15T14:06:02.686Z,62.70
2023-04-15T14:08:32.081Z,62.70
2023-04-15T14:11:00.010Z,62.70
2023-04-15T14:13:27.941Z,63.10
2023-04-15T14:15:55.869Z,63.40
2023-04-15T14:18:23.791Z,63.60
2023-04-15T14:20:51.703Z,63.60
2023-04-15T14:23:19.608Z,63.30
2023-04-15T14:25:48.932Z,62.80
2023-04-15T14:28:16.827Z,62.90
2023-04-15T14:30:44.823Z,62.70
2023-04-15T14:33:13.117Z,63.00
2023-04-15T14:35:40.980Z,63.30
2023-04-15T14:38:11.121Z,63.30
2023-04-15T14:40:39.477Z,63.40
2023-04-15T14:43:08.704Z,63.60
2023-04-15T14:45:36.671Z,63.60
2023-04-15T14:48:06.403Z,63.70
2023-04-15T14:50:34.471Z,63.70
2023-04-15T14:53:02.498Z,63.70
2023-04-15T14:55:30.563Z,63.80
2023-04-15T14:57:58.500Z,63.70
2023-04-15T15:00:27.747Z,63.70
2023-04-15T15:02:55.689Z,62.90
2023-04-15T15:05:23.757Z,63.20
2023-04-15T15:07:51.803Z,63.30
2023-04-15T15:10:34.999Z,63.50
2023-04-15T15:13:08.949Z,63.40
2023-04-15T15:15:38.661Z,63.40
2023-04-15T15:18:06.678Z,63.50
2023-04-15T15:20:35.437Z,63.50
2023-04-15T15:23:03.402Z,63.30
2023-04-15T15:25:31.286Z,63.30
2023-04-15T15:27:59.324Z,63.30
2023-04-15T15:30:27.257Z,63.30
2023-04-15T15:32:56.568Z,63.40
2023-04-15T15:35:25.848Z,63.40
2023-04-15T15:37:54.930Z,63.20
2023-04-15T15:40:22.864Z,63.20
2023-04-15T15:42:51.065Z,63.30
2023-04-15T15:45:19.078Z,63.30
2023-04-15T15:47:47.076Z,63.30
2023-04-15T15:50:16.358Z,63.20
2023-04-15T15:52:44.317Z,63.20
2023-04-15T15:55:12.235Z,62.90
2023-04-15T15:57:40.315Z,62.80
2023-04-15T16:00:12.099Z,63.00
2023-04-15T16:05:11.984Z,63.00
2023-04-15T16:07:41.211Z,62.80
2023-04-15T16:10:10.245Z,62.90
2023-04-15T16:12:38.152Z,63.00
2023-04-15T16:15:07.058Z,63.00
2023-04-15T16:17:35.060Z,63.10
2023-04-15T16:20:05.829Z,63.10
2023-04-15T16:22:34.235Z,63.10
2023-04-15T16:25:03.646Z,63.00
2023-04-15T16:27:31.634Z,63.00
2023-04-15T16:29:59.557Z,63.00
2023-04-15T16:32:27.556Z,63.10
2023-04-15T16:34:55.499Z,63.00
2023-04-15T16:37:23.462Z,63.00
2023-04-15T16:39:51.357Z,63.00
2023-04-15T16:42:20.668Z,63.00
2023-04-15T16:44:48.566Z,63.00
2023-04-15T16:47:16.493Z,63.00
2023-04-15T16:49:44.403Z,63.00
2023-04-15T16:52:12.309Z,63.00
2023-04-15T16:54:41.397Z,63.00
2023-04-15T16:57:09.441Z,63.00
2023-04-15T16:59:38.956Z,63.10
2023-04-15T17:02:06.874Z,63.20
2023-04-15T17:04:35.057Z,63.30
2023-04-15T17:07:03.901Z,63.10
2023-04-15T17:09:31.847Z,63.50
2023-04-15T17:11:59.764Z,63.40
2023-04-15T17:14:28.777Z,63.90
2023-04-15T17:16:58.057Z,64.00
2023-04-15T17:19:26.776Z,64.20
2023-04-15T17:21:55.177Z,64.30
2023-04-15T17:24:23.715Z,64.50
2023-04-15T17:26:51.606Z,64.70
2023-04-15T17:29:19.483Z,64.80
2023-04-15T17:31:47.406Z,65.00
2023-04-15T17:34:16.905Z,65.10
2023-04-15T17:36:44.912Z,65.40
2023-04-15T17:39:14.063Z,66.00
2023-04-15T17:41:41.965Z,65.50
2023-04-15T17:44:09.907Z,65.10
2023-04-15T17:46:37.904Z,65.10
2023-04-15T17:49:06.662Z,65.10
2023-04-15T17:51:36.151Z,65.30
2023-04-15T17:54:09.693Z,65.60
2023-04-15T17:56:37.680Z,65.70
2023-04-15T17:59:06.336Z,65.80
2023-04-15T18:01:34.346Z,66.00
2023-04-15T18:04:02.542Z,66.20
2023-04-15T18:06:30.955Z,66.20
2023-04-15T18:09:00.295Z,66.40
2023-04-15T18:11:28.218Z,66.60
2023-04-15T18:13:56.121Z,66.50
2023-04-15T18:16:24.069Z,66.60
2023-04-15T18:18:52.273Z,66.70
2023-04-15T18:21:20.264Z,66.70
2023-04-15T18:23:48.438Z,66.70
2023-04-15T18:26:17.931Z,66.70
2023-04-15T18:28:46.383Z,66.70
2023-04-15T18:31:15.022Z,66.60
2023-04-15T18:33:43.866Z,66.50
2023-04-15T18:36:12.144Z,66.60
2023-04-15T18:38:40.347Z,66.40
2023-04-15T18:41:10.066Z,66.20
2023-04-15T18:43:39.670Z,66.10
2023-04-15T18:46:11.753Z,66.10
2023-04-15T18:48:40.117Z,65.90
2023-04-15T18:51:08.294Z,65.80
2023-04-15T18:53:36.476Z,65.60
2023-04-15T18:56:04.604Z,65.50
2023-04-15T18:59:09.544Z,66.40
2023-04-15T19:01:22.184Z,66.40
2023-04-15T19:03:50.220Z,65.30
2023-04-15T19:06:18.260Z,65.20
2023-04-15T19:08:46.168Z,65.10
2023-04-15T19:11:14.042Z,65.10
2023-04-15T19:13:41.955Z,65.10
2023-04-15T19:16:09.851Z,65.00
2023-04-15T19:18:39.090Z,65.00
2023-04-15T19:21:06.996Z,64.90
2023-04-15T19:23:34.877Z,64.80
2023-04-15T19:26:02.795Z,64.80
2023-04-15T19:28:31.187Z,64.70
2023-04-15T19:30:59.211Z,64.70
2023-04-15T19:33:31.107Z,64.60
2023-04-15T19:36:01.714Z,64.60
2023-04-15T19:38:30.524Z,64.60
2023-04-15T19:40:58.405Z,64.40
2023-04-15T19:43:26.355Z,64.40
2023-04-15T19:45:54.643Z,64.50
2023-04-15T19:48:23.523Z,64.50
2023-04-15T19:50:51.719Z,64.50
2023-04-15T19:53:20.997Z,64.50
2023-04-15T19:55:49.422Z,64.60
2023-04-15T19:58:17.365Z,64.60
2023-04-15T20:00:45.374Z,64.70
2023-04-15T20:03:13.435Z,64.80
2023-04-15T20:05:41.422Z,64.70
2023-04-15T20:08:09.308Z,64.80
2023-04-15T20:10:38.853Z,64.80
2023-04-15T20:13:06.728Z,64.90
2023-04-15T20:15:34.712Z,64.80
2023-04-15T20:18:02.652Z,64.80
2023-04-15T20:20:30.530Z,64.70
2023-04-15T20:22:58.523Z,64.70
2023-04-15T20:25:26.628Z,64.70
2023-04-15T20:27:56.777Z,64.80
2023-04-15T20:30:24.635Z,64.80
2023-04-15T20:32:52.589Z,64.80
2023-04-15T20:35:20.777Z,65.80
2023-04-15T20:37:49.872Z,64.90
2023-04-15T20:40:17.867Z,65.00
2023-04-15T20:42:46.023Z,65.00
2023-04-15T20:45:15.320Z,65.00
2023-04-15T20:47:43.232Z,65.10
2023-04-15T20:50:12.300Z,65.30
2023-04-15T20:52:40.245Z,65.10
2023-04-15T20:55:09.263Z,65.10
2023-04-15T20:57:37.138Z,65.50
2023-04-15T21:00:06.202Z,65.40
2023-04-15T21:02:35.646Z,65.50
2023-04-15T21:05:03.621Z,65.90
2023-04-15T21:07:31.499Z,66.10
2023-04-15T21:09:59.429Z,66.40
2023-04-15T21:12:27.297Z,66.90
2023-04-15T21:14:55.432Z,67.00
2023-04-15T21:17:23.407Z,67.50
2023-04-15T21:19:52.647Z,68.00
2023-04-15T21:22:20.537Z,68.40
2023-04-15T21:24:48.449Z,68.40
2023-04-15T21:27:16.753Z,68.50
2023-04-15T21:29:44.706Z,68.60
2023-04-15T21:32:12.992Z,68.60
2023-04-15T21:34:40.979Z,68.70
2023-04-15T21:37:10.316Z,68.80
2023-04-15T21:39:38.209Z,68.80
2023-04-15T21:42:06.155Z,68.70
2023-04-15T21:44:34.114Z,68.70
2023-04-15T21:47:02.342Z,68.90
2023-04-15T21:49:30.691Z,68.90
2023-04-15T21:52:01.229Z,69.00
2023-04-15T21:54:31.148Z,69.00
2023-04-15T21:56:59.144Z,69.00
2023-04-15T21:59:27.296Z,69.20
2023-04-15T22:01:55.346Z,69.20
2023-04-15T22:04:23.375Z,69.30
2023-04-15T22:06:52.259Z,69.20
2023-04-15T22:09:20.118Z,69.30
2023-04-15T22:11:50.080Z,69.30
2023-04-15T22:14:17.965Z,69.00
2023-04-15T22:16:46.114Z,68.80
2023-04-15T22:19:14.046Z,68.80
2023-04-15T22:21:42.998Z,68.90
2023-04-15T22:24:32.196Z,68.80
2023-04-15T22:27:00.606Z,68.80
2023-04-15T22:29:28.456Z,68.90
2023-04-15T22:31:56.426Z,69.00
2023-04-15T22:34:24.305Z,69.00
2023-04-15T22:36:52.487Z,69.10
2023-04-15T22:39:20.460Z,69.20
2023-04-15T22:41:48.367Z,69.20
2023-04-15T22:44:17.655Z,69.20
2023-04-15T22:46:45.581Z,69.30
2023-04-15T22:49:13.437Z,69.30
2023-04-15T22:51:41.321Z,69.30
2023-04-15T22:54:09.205Z,69.30
2023-04-15T22:56:37.084Z,69.20
2023-04-15T22:59:04.936Z,69.20
2023-04-15T23:01:34.194Z,69.10
2023-04-15T23:04:08.285Z,69.10
2023-04-15T23:06:38.988Z,69.10
2023-04-15T23:09:06.903Z,69.00
2023-04-15T23:11:34.777Z,68.90
2023-04-15T23:14:02.959Z,68.90
2023-04-15T23:16:30.841Z,68.80
2023-04-15T23:19:00.169Z,68.70
2023-04-15T23:21:28.418Z,68.60
2023-04-15T23:23:56.284Z,68.60
2023-04-15T23:26:24.428Z,68.60
2023-04-15T23:28:52.302Z,68.60
2023-04-15T23:31:20.281Z,68.60
2023-04-15T23:33:48.201Z,68.60
2023-04-15T23:36:17.491Z,68.60
2023-04-15T23:38:45.461Z,68.50
2023-04-15T23:41:13.416Z,68.50
2023-04-15T23:43:41.284Z,68.50
2023-04-15T23:46:09.365Z,68.50
2023-04-15T23:48:37.209Z,68.50
2023-04-15T23:51:05.549Z,68.50
2023-04-15T23:53:34.812Z,68.50
2023-04-15T23:56:02.782Z,68.40
2023-04-15T23:58:31.865Z,68.40
